sensor_id;sensor_type;location;lat;lon;timestamp;P1;durP1;ratioP1;P2;durP2;ratioP2
46589;SDS011;32313;48.722;9.362;2023-07-31T00:01:28;5.27;;;4.77;;
46589;SDS011;32313;48.722;9.362;2023-07-31T00:03:53;5.30;;;4.80;;
46589;SDS011;32313;48.722;9.362;2023-07-31T00:06:19;6.47;;;5.10;;
46589;SDS011;32313;48.722;9.362;2023-07-31T00:08:45;5.83;;;5.23;;
46589;SDS011;32313;48.722;9.362;2023-07-31T00:11:10;7.90;;;5.27;;
46589;SDS011;32313;48.722;9.362;2023-07-31T00:13:36;5.50;;;5.00;;
46589;SDS011;32313;48.722;9.362;2023-07-31T00:16:02;6.83;;;5.20;;
46589;SDS011;32313;48.722;9.362;2023-07-31T00:18:27;7.83;;;5.13;;
46589;SDS011;32313;48.722;9.362;2023-07-31T00:20:53;6.20;;;5.60;;
46589;SDS011;32313;48.722;9.362;2023-07-31T00:23:18;8.53;;;5.40;;
46589;SDS011;32313;48.722;9.362;2023-07-31T00:25:44;6.93;;;4.77;;
46589;SDS011;32313;48.722;9.362;2023-07-31T00:28:10;8.00;;;5.40;;
46589;SDS011;32313;48.722;9.362;2023-07-31T00:30:35;9.27;;;5.67;;
46589;SDS011;32313;48.722;9.362;2023-07-31T00:33:01;5.63;;;5.13;;
46589;SDS011;32313;48.722;9.362;2023-07-31T00:35:27;9.40;;;4.90;;
46589;SDS011;32313;48.722;9.362;2023-07-31T00:37:52;7.20;;;5.27;;
46589;SDS011;32313;48.722;9.362;2023-07-31T00:40:18;8.77;;;5.63;;
46589;SDS011;32313;48.722;9.362;2023-07-31T00:42:44;8.43;;;5.20;;
46589;SDS011;32313;48.722;9.362;2023-07-31T00:45:11;7.23;;;5.87;;
46589;SDS011;32313;48.722;9.362;2023-07-31T00:47:36;6.20;;;5.50;;
46589;SDS011;32313;48.722;9.362;2023-07-31T00:50:02;5.93;;;5.33;;
46589;SDS011;32313;48.722;9.362;2023-07-31T00:52:28;6.20;;;5.50;;
46589;SDS011;32313;48.722;9.362;2023-07-31T00:54:55;7.23;;;5.37;;
46589;SDS011;32313;48.722;9.362;2023-07-31T00:57:20;6.27;;;5.67;;
46589;SDS011;32313;48.722;9.362;2023-07-31T00:59:46;5.90;;;5.33;;
46589;SDS011;32313;48.722;9.362;2023-07-31T01:02:13;6.33;;;5.77;;
46589;SDS011;32313;48.722;9.362;2023-07-31T01:04:39;8.60;;;5.53;;
46589;SDS011;32313;48.722;9.362;2023-07-31T01:09:57;7.37;;;5.60;;
46589;SDS011;32313;48.722;9.362;2023-07-31T01:12:45;6.90;;;5.53;;
46589;SDS011;32313;48.722;9.362;2023-07-31T01:15:11;5.57;;;4.80;;
46589;SDS011;32313;48.722;9.362;2023-07-31T01:17:41;6.40;;;5.80;;
46589;SDS011;32313;48.722;9.362;2023-07-31T01:20:12;6.30;;;5.77;;
46589;SDS011;32313;48.722;9.362;2023-07-31T01:23:02;6.60;;;5.27;;
46589;SDS011;32313;48.722;9.362;2023-07-31T01:26:00;7.23;;;5.07;;
46589;SDS011;32313;48.722;9.362;2023-07-31T01:28:36;6.10;;;5.50;;
46589;SDS011;32313;48.722;9.362;2023-07-31T01:31:09;6.13;;;5.60;;
46589;SDS011;32313;48.722;9.362;2023-07-31T01:33:37;6.00;;;5.40;;
46589;SDS011;32313;48.722;9.362;2023-07-31T01:36:03;6.23;;;5.60;;
46589;SDS011;32313;48.722;9.362;2023-07-31T01:38:29;5.63;;;5.13;;
46589;SDS011;32313;48.722;9.362;2023-07-31T01:40:55;10.17;;;6.10;;
46589;SDS011;32313;48.722;9.362;2023-07-31T01:43:23;7.03;;;5.90;;
46589;SDS011;32313;48.722;9.362;2023-07-31T01:45:49;10.40;;;6.00;;
46589;SDS011;32313;48.722;9.362;2023-07-31T01:48:29;7.60;;;6.87;;
46589;SDS011;32313;48.722;9.362;2023-07-31T01:51:00;8.83;;;6.77;;
46589;SDS011;32313;48.722;9.362;2023-07-31T01:53:27;7.50;;;6.40;;
46589;SDS011;32313;48.722;9.362;2023-07-31T01:55:52;8.07;;;6.60;;
46589;SDS011;32313;48.722;9.362;2023-07-31T01:58:18;7.17;;;6.47;;
46589;SDS011;32313;48.722;9.362;2023-07-31T02:00:44;7.73;;;6.67;;
46589;SDS011;32313;48.722;9.362;2023-07-31T02:03:09;8.00;;;6.57;;
46589;SDS011;32313;48.722;9.362;2023-07-31T02:05:35;7.60;;;6.37;;
46589;SDS011;32313;48.722;9.362;2023-07-31T02:08:01;7.57;;;6.93;;
46589;SDS011;32313;48.722;9.362;2023-07-31T02:10:26;10.80;;;7.10;;
46589;SDS011;32313;48.722;9.362;2023-07-31T02:12:52;7.87;;;7.17;;
46589;SDS011;32313;48.722;9.362;2023-07-31T02:15:17;6.87;;;6.30;;
46589;SDS011;32313;48.722;9.362;2023-07-31T02:17:43;11.87;;;7.50;;
46589;SDS011;32313;48.722;9.362;2023-07-31T02:20:09;8.00;;;7.20;;
46589;SDS011;32313;48.722;9.362;2023-07-31T02:22:35;10.23;;;7.10;;
46589;SDS011;32313;48.722;9.362;2023-07-31T02:25:01;12.90;;;7.60;;
46589;SDS011;32313;48.722;9.362;2023-07-31T02:27:27;10.63;;;6.80;;
46589;SDS011;32313;48.722;9.362;2023-07-31T02:29:53;11.07;;;6.90;;
46589;SDS011;32313;48.722;9.362;2023-07-31T02:32:19;7.67;;;6.83;;
46589;SDS011;32313;48.722;9.362;2023-07-31T02:34:45;9.47;;;7.10;;
46589;SDS011;32313;48.722;9.362;2023-07-31T02:37:11;9.83;;;6.70;;
46589;SDS011;32313;48.722;9.362;2023-07-31T02:39:36;8.17;;;7.03;;
46589;SDS011;32313;48.722;9.362;2023-07-31T02:42:02;7.47;;;6.47;;
46589;SDS011;32313;48.722;9.362;2023-07-31T02:44:28;7.50;;;6.80;;
46589;SDS011;32313;48.722;9.362;2023-07-31T02:46:54;8.67;;;6.80;;
46589;SDS011;32313;48.722;9.362;2023-07-31T02:49:19;7.27;;;6.57;;
46589;SDS011;32313;48.722;9.362;2023-07-31T02:51:45;6.97;;;6.27;;
46589;SDS011;32313;48.722;9.362;2023-07-31T02:54:11;11.20;;;7.27;;
46589;SDS011;32313;48.722;9.362;2023-07-31T02:56:37;9.30;;;6.70;;
46589;SDS011;32313;48.722;9.362;2023-07-31T02:59:02;6.47;;;5.87;;
46589;SDS011;32313;48.722;9.362;2023-07-31T03:01:28;9.93;;;6.83;;
46589;SDS011;32313;48.722;9.362;2023-07-31T03:03:54;10.43;;;6.47;;
46589;SDS011;32313;48.722;9.362;2023-07-31T03:06:19;8.00;;;6.80;;
46589;SDS011;32313;48.722;9.362;2023-07-31T03:08:45;7.40;;;6.63;;
46589;SDS011;32313;48.722;9.362;2023-07-31T03:11:11;10.77;;;6.50;;
46589;SDS011;32313;48.722;9.362;2023-07-31T03:13:37;9.83;;;6.30;;
46589;SDS011;32313;48.722;9.362;2023-07-31T03:16:02;7.03;;;6.40;;
46589;SDS011;32313;48.722;9.362;2023-07-31T03:18:28;9.57;;;6.63;;
46589;SDS011;32313;48.722;9.362;2023-07-31T03:20:54;7.40;;;6.77;;
46589;SDS011;32313;48.722;9.362;2023-07-31T03:23:19;7.37;;;6.63;;
46589;SDS011;32313;48.722;9.362;2023-07-31T03:25:55;8.27;;;6.90;;
46589;SDS011;32313;48.722;9.362;2023-07-31T03:28:22;8.20;;;6.90;;
46589;SDS011;32313;48.722;9.362;2023-07-31T03:30:47;9.43;;;7.27;;
46589;SDS011;32313;48.722;9.362;2023-07-31T03:33:14;8.67;;;6.90;;
46589;SDS011;32313;48.722;9.362;2023-07-31T03:35:40;7.57;;;6.50;;
46589;SDS011;32313;48.722;9.362;2023-07-31T03:38:05;8.40;;;7.30;;
46589;SDS011;32313;48.722;9.362;2023-07-31T03:40:31;7.33;;;6.63;;
46589;SDS011;32313;48.722;9.362;2023-07-31T03:42:58;7.07;;;6.40;;
46589;SDS011;32313;48.722;9.362;2023-07-31T03:45:24;9.93;;;7.20;;
46589;SDS011;32313;48.722;9.362;2023-07-31T03:47:50;7.03;;;6.33;;
46589;SDS011;32313;48.722;9.362;2023-07-31T03:50:16;9.00;;;7.13;;
46589;SDS011;32313;48.722;9.362;2023-07-31T03:52:41;7.57;;;6.87;;
46589;SDS011;32313;48.722;9.362;2023-07-31T03:55:07;12.57;;;8.80;;
46589;SDS011;32313;48.722;9.362;2023-07-31T03:57:33;16.40;;;11.67;;
46589;SDS011;32313;48.722;9.362;2023-07-31T03:59:59;11.50;;;9.43;;
46589;SDS011;32313;48.722;9.362;2023-07-31T04:02:24;13.50;;;9.67;;
46589;SDS011;32313;48.722;9.362;2023-07-31T04:04:50;14.47;;;9.37;;
46589;SDS011;32313;48.722;9.362;2023-07-31T04:07:16;9.40;;;7.73;;
46589;SDS011;32313;48.722;9.362;2023-07-31T04:09:41;10.20;;;8.10;;
46589;SDS011;32313;48.722;9.362;2023-07-31T04:12:07;10.50;;;7.23;;
46589;SDS011;32313;48.722;9.362;2023-07-31T04:14:33;9.70;;;6.97;;
46589;SDS011;32313;48.722;9.362;2023-07-31T04:16:58;11.77;;;7.33;;
46589;SDS011;32313;48.722;9.362;2023-07-31T04:19:24;6.97;;;6.37;;
46589;SDS011;32313;48.722;9.362;2023-07-31T04:21:50;9.13;;;6.87;;
46589;SDS011;32313;48.722;9.362;2023-07-31T04:24:15;7.50;;;6.43;;
46589;SDS011;32313;48.722;9.362;2023-07-31T04:26:47;9.70;;;6.97;;
46589;SDS011;32313;48.722;9.362;2023-07-31T04:29:12;7.07;;;6.37;;
46589;SDS011;32313;48.722;9.362;2023-07-31T04:31:38;7.23;;;6.50;;
46589;SDS011;32313;48.722;9.362;2023-07-31T04:34:04;8.20;;;6.47;;
46589;SDS011;32313;48.722;9.362;2023-07-31T04:36:29;8.63;;;6.63;;
46589;SDS011;32313;48.722;9.362;2023-07-31T04:38:55;9.23;;;6.60;;
46589;SDS011;32313;48.722;9.362;2023-07-31T04:41:21;7.67;;;6.37;;
46589;SDS011;32313;48.722;9.362;2023-07-31T04:43:46;7.63;;;5.93;;
46589;SDS011;32313;48.722;9.362;2023-07-31T04:46:12;7.63;;;6.07;;
46589;SDS011;32313;48.722;9.362;2023-07-31T04:48:38;7.93;;;6.33;;
46589;SDS011;32313;48.722;9.362;2023-07-31T04:51:03;7.27;;;6.00;;
46589;SDS011;32313;48.722;9.362;2023-07-31T04:53:29;8.67;;;6.60;;
46589;SDS011;32313;48.722;9.362;2023-07-31T04:55:54;7.43;;;6.20;;
46589;SDS011;32313;48.722;9.362;2023-07-31T04:58:20;6.97;;;6.27;;
46589;SDS011;32313;48.722;9.362;2023-07-31T05:00:46;6.73;;;6.03;;
46589;SDS011;32313;48.722;9.362;2023-07-31T05:03:11;5.97;;;5.37;;
46589;SDS011;32313;48.722;9.362;2023-07-31T05:05:37;7.33;;;6.10;;
46589;SDS011;32313;48.722;9.362;2023-07-31T05:08:03;8.77;;;6.10;;
46589;SDS011;32313;48.722;9.362;2023-07-31T05:10:28;7.13;;;5.67;;
46589;SDS011;32313;48.722;9.362;2023-07-31T05:12:54;10.77;;;5.83;;
46589;SDS011;32313;48.722;9.362;2023-07-31T05:15:20;5.83;;;5.07;;
46589;SDS011;32313;48.722;9.362;2023-07-31T05:17:46;6.40;;;5.47;;
46589;SDS011;32313;48.722;9.362;2023-07-31T05:20:11;7.33;;;5.17;;
46589;SDS011;32313;48.722;9.362;2023-07-31T05:22:37;7.40;;;5.50;;
46589;SDS011;32313;48.722;9.362;2023-07-31T05:25:03;5.40;;;4.67;;
46589;SDS011;32313;48.722;9.362;2023-07-31T05:27:29;8.57;;;5.27;;
46589;SDS011;32313;48.722;9.362;2023-07-31T05:29:55;5.50;;;5.00;;
46589;SDS011;32313;48.722;9.362;2023-07-31T05:32:20;6.47;;;4.90;;
46589;SDS011;32313;48.722;9.362;2023-07-31T05:34:46;5.47;;;4.80;;
46589;SDS011;32313;48.722;9.362;2023-07-31T05:37:13;6.33;;;4.87;;
46589;SDS011;32313;48.722;9.362;2023-07-31T05:39:39;7.13;;;5.00;;
46589;SDS011;32313;48.722;9.362;2023-07-31T05:42:05;5.50;;;5.00;;
46589;SDS011;32313;48.722;9.362;2023-07-31T05:44:30;7.67;;;4.90;;
46589;SDS011;32313;48.722;9.362;2023-07-31T05:46:56;6.63;;;4.70;;
46589;SDS011;32313;48.722;9.362;2023-07-31T05:49:22;4.30;;;3.90;;
46589;SDS011;32313;48.722;9.362;2023-07-31T05:51:47;6.20;;;5.03;;
46589;SDS011;32313;48.722;9.362;2023-07-31T05:54:13;4.97;;;4.40;;
46589;SDS011;32313;48.722;9.362;2023-07-31T05:56:38;6.20;;;4.77;;
46589;SDS011;32313;48.722;9.362;2023-07-31T05:59:04;5.67;;;4.83;;
46589;SDS011;32313;48.722;9.362;2023-07-31T06:01:30;6.10;;;4.67;;
46589;SDS011;32313;48.722;9.362;2023-07-31T06:03:55;6.87;;;4.57;;
46589;SDS011;32313;48.722;9.362;2023-07-31T06:06:21;4.87;;;4.37;;
46589;SDS011;32313;48.722;9.362;2023-07-31T06:08:47;5.77;;;4.13;;
46589;SDS011;32313;48.722;9.362;2023-07-31T06:11:12;6.40;;;4.63;;
46589;SDS011;32313;48.722;9.362;2023-07-31T06:13:38;6.23;;;4.00;;
46589;SDS011;32313;48.722;9.362;2023-07-31T06:16:04;5.37;;;4.00;;
46589;SDS011;32313;48.722;9.362;2023-07-31T06:18:34;5.40;;;4.03;;
46589;SDS011;32313;48.722;9.362;2023-07-31T06:20:59;7.03;;;3.90;;
46589;SDS011;32313;48.722;9.362;2023-07-31T06:23:25;6.43;;;3.77;;
46589;SDS011;32313;48.722;9.362;2023-07-31T06:25:51;7.43;;;3.80;;
46589;SDS011;32313;48.722;9.362;2023-07-31T06:28:17;4.03;;;3.63;;
46589;SDS011;32313;48.722;9.362;2023-07-31T06:30:42;4.63;;;3.30;;
46589;SDS011;32313;48.722;9.362;2023-07-31T06:33:08;7.43;;;3.80;;
46589;SDS011;32313;48.722;9.362;2023-07-31T06:35:34;4.33;;;3.80;;
46589;SDS011;32313;48.722;9.362;2023-07-31T06:38:00;5.03;;;3.33;;
46589;SDS011;32313;48.722;9.362;2023-07-31T06:40:26;3.80;;;3.27;;
46589;SDS011;32313;48.722;9.362;2023-07-31T06:42:52;3.53;;;3.23;;
46589;SDS011;32313;48.722;9.362;2023-07-31T06:45:17;7.87;;;3.47;;
46589;SDS011;32313;48.722;9.362;2023-07-31T06:47:43;4.00;;;3.30;;
46589;SDS011;32313;48.722;9.362;2023-07-31T06:50:09;3.77;;;3.00;;
46589;SDS011;32313;48.722;9.362;2023-07-31T06:52:34;3.53;;;3.20;;
46589;SDS011;32313;48.722;9.362;2023-07-31T06:55:02;3.13;;;2.47;;
46589;SDS011;32313;48.722;9.362;2023-07-31T06:57:44;5.23;;;3.07;;
46589;SDS011;32313;48.722;9.362;2023-07-31T07:00:10;4.87;;;2.80;;
46589;SDS011;32313;48.722;9.362;2023-07-31T07:02:36;4.50;;;2.80;;
46589;SDS011;32313;48.722;9.362;2023-07-31T07:05:02;4.93;;;3.00;;
46589;SDS011;32313;48.722;9.362;2023-07-31T07:07:27;5.27;;;2.70;;
46589;SDS011;32313;48.722;9.362;2023-07-31T07:09:53;4.87;;;2.70;;
46589;SDS011;32313;48.722;9.362;2023-07-31T07:12:19;4.60;;;2.30;;
46589;SDS011;32313;48.722;9.362;2023-07-31T07:14:45;4.07;;;2.30;;
46589;SDS011;32313;48.722;9.362;2023-07-31T07:17:13;5.83;;;2.70;;
46589;SDS011;32313;48.722;9.362;2023-07-31T07:19:40;4.80;;;2.37;;
46589;SDS011;32313;48.722;9.362;2023-07-31T07:22:06;3.50;;;2.50;;
46589;SDS011;32313;48.722;9.362;2023-07-31T07:24:32;6.87;;;2.47;;
46589;SDS011;32313;48.722;9.362;2023-07-31T07:26:57;3.97;;;2.37;;
46589;SDS011;32313;48.722;9.362;2023-07-31T07:29:23;5.67;;;2.30;;
46589;SDS011;32313;48.722;9.362;2023-07-31T07:31:49;4.17;;;2.40;;
46589;SDS011;32313;48.722;9.362;2023-07-31T07:34:14;8.03;;;3.10;;
46589;SDS011;32313;48.722;9.362;2023-07-31T07:36:40;2.97;;;2.50;;
46589;SDS011;32313;48.722;9.362;2023-07-31T07:39:06;3.90;;;2.43;;
46589;SDS011;32313;48.722;9.362;2023-07-31T07:41:31;3.93;;;2.13;;
46589;SDS011;32313;48.722;9.362;2023-07-31T07:43:57;3.83;;;2.67;;
46589;SDS011;32313;48.722;9.362;2023-07-31T07:46:23;4.50;;;2.53;;
46589;SDS011;32313;48.722;9.362;2023-07-31T07:48:48;4.53;;;2.53;;
46589;SDS011;32313;48.722;9.362;2023-07-31T07:51:14;4.17;;;2.27;;
46589;SDS011;32313;48.722;9.362;2023-07-31T07:53:39;3.43;;;2.37;;
46589;SDS011;32313;48.722;9.362;2023-07-31T07:56:05;5.97;;;2.80;;
46589;SDS011;32313;48.722;9.362;2023-07-31T07:58:31;4.17;;;2.50;;
46589;SDS011;32313;48.722;9.362;2023-07-31T08:00:56;4.67;;;2.40;;
46589;SDS011;32313;48.722;9.362;2023-07-31T08:03:22;5.33;;;2.53;;
46589;SDS011;32313;48.722;9.362;2023-07-31T08:05:48;2.93;;;2.40;;
46589;SDS011;32313;48.722;9.362;2023-07-31T08:08:14;4.53;;;2.47;;
46589;SDS011;32313;48.722;9.362;2023-07-31T08:10:41;3.27;;;2.40;;
46589;SDS011;32313;48.722;9.362;2023-07-31T08:13:07;4.60;;;2.57;;
46589;SDS011;32313;48.722;9.362;2023-07-31T08:15:33;3.63;;;2.40;;
46589;SDS011;32313;48.722;9.362;2023-07-31T08:17:58;5.97;;;2.40;;
46589;SDS011;32313;48.722;9.362;2023-07-31T08:20:24;5.33;;;2.77;;
46589;SDS011;32313;48.722;9.362;2023-07-31T08:22:51;5.67;;;2.93;;
46589;SDS011;32313;48.722;9.362;2023-07-31T08:25:18;3.90;;;2.57;;
46589;SDS011;32313;48.722;9.362;2023-07-31T08:27:44;4.90;;;2.60;;
46589;SDS011;32313;48.722;9.362;2023-07-31T08:30:11;4.43;;;2.40;;
46589;SDS011;32313;48.722;9.362;2023-07-31T08:32:37;5.13;;;2.50;;
46589;SDS011;32313;48.722;9.362;2023-07-31T08:35:03;5.27;;;2.67;;
46589;SDS011;32313;48.722;9.362;2023-07-31T08:37:29;6.57;;;2.70;;
46589;SDS011;32313;48.722;9.362;2023-07-31T08:39:54;4.67;;;2.63;;
46589;SDS011;32313;48.722;9.362;2023-07-31T08:42:20;4.60;;;2.60;;
46589;SDS011;32313;48.722;9.362;2023-07-31T08:44:46;4.80;;;2.50;;
46589;SDS011;32313;48.722;9.362;2023-07-31T08:51:01;4.77;;;2.87;;
46589;SDS011;32313;48.722;9.362;2023-07-31T08:53:27;3.67;;;2.40;;
46589;SDS011;32313;48.722;9.362;2023-07-31T08:55:52;6.07;;;2.63;;
46589;SDS011;32313;48.722;9.362;2023-07-31T08:58:19;3.87;;;2.80;;
46589;SDS011;32313;48.722;9.362;2023-07-31T09:00:46;5.60;;;2.80;;
46589;SDS011;32313;48.722;9.362;2023-07-31T09:03:16;4.80;;;2.30;;
46589;SDS011;32313;48.722;9.362;2023-07-31T09:05:44;5.60;;;2.80;;
46589;SDS011;32313;48.722;9.362;2023-07-31T09:08:12;5.67;;;2.47;;
46589;SDS011;32313;48.722;9.362;2023-07-31T09:10:42;4.07;;;2.53;;
46589;SDS011;32313;48.722;9.362;2023-07-31T09:13:11;5.70;;;2.40;;
46589;SDS011;32313;48.722;9.362;2023-07-31T09:15:37;5.13;;;2.57;;
46589;SDS011;32313;48.722;9.362;2023-07-31T09:18:04;5.27;;;2.90;;
46589;SDS011;32313;48.722;9.362;2023-07-31T09:20:31;5.00;;;2.80;;
46589;SDS011;32313;48.722;9.362;2023-07-31T09:23:04;3.90;;;2.57;;
46589;SDS011;32313;48.722;9.362;2023-07-31T09:25:37;4.43;;;2.67;;
46589;SDS011;32313;48.722;9.362;2023-07-31T09:28:07;4.60;;;3.20;;
46589;SDS011;32313;48.722;9.362;2023-07-31T09:33:29;4.57;;;2.70;;
46589;SDS011;32313;48.722;9.362;2023-07-31T09:35:57;4.37;;;2.83;;
46589;SDS011;32313;48.722;9.362;2023-07-31T09:38:25;4.03;;;2.70;;
46589;SDS011;32313;48.722;9.362;2023-07-31T09:40:50;3.87;;;2.47;;
46589;SDS011;32313;48.722;9.362;2023-07-31T09:43:17;5.87;;;2.90;;
46589;SDS011;32313;48.722;9.362;2023-07-31T09:45:44;4.83;;;2.83;;
46589;SDS011;32313;48.722;9.362;2023-07-31T09:48:11;4.63;;;2.60;;
46589;SDS011;32313;48.722;9.362;2023-07-31T09:50:39;5.70;;;2.83;;
46589;SDS011;32313;48.722;9.362;2023-07-31T09:53:07;4.60;;;2.90;;
46589;SDS011;32313;48.722;9.362;2023-07-31T09:55:33;3.80;;;2.43;;
46589;SDS011;32313;48.722;9.362;2023-07-31T09:58:03;6.80;;;2.80;;
46589;SDS011;32313;48.722;9.362;2023-07-31T10:00:33;5.10;;;2.60;;
46589;SDS011;32313;48.722;9.362;2023-07-31T10:03:00;6.10;;;2.97;;
46589;SDS011;32313;48.722;9.362;2023-07-31T10:05:31;4.37;;;2.80;;
46589;SDS011;32313;48.722;9.362;2023-07-31T10:08:00;4.80;;;2.70;;
46589;SDS011;32313;48.722;9.362;2023-07-31T10:10:27;5.30;;;2.70;;
46589;SDS011;32313;48.722;9.362;2023-07-31T10:12:54;4.13;;;2.70;;
46589;SDS011;32313;48.722;9.362;2023-07-31T10:15:21;4.30;;;2.60;;
46589;SDS011;32313;48.722;9.362;2023-07-31T10:17:48;4.60;;;2.40;;
46589;SDS011;32313;48.722;9.362;2023-07-31T10:20:15;5.43;;;2.60;;
46589;SDS011;32313;48.722;9.362;2023-07-31T10:22:41;3.93;;;2.57;;
46589;SDS011;32313;48.722;9.362;2023-07-31T10:25:08;5.30;;;2.70;;
46589;SDS011;32313;48.722;9.362;2023-07-31T10:27:35;4.43;;;2.53;;
46589;SDS011;32313;48.722;9.362;2023-07-31T10:30:03;4.67;;;2.63;;
46589;SDS011;32313;48.722;9.362;2023-07-31T10:32:30;5.97;;;2.90;;
46589;SDS011;32313;48.722;9.362;2023-07-31T10:34:56;4.30;;;2.50;;
46589;SDS011;32313;48.722;9.362;2023-07-31T10:37:27;5.50;;;2.73;;
46589;SDS011;32313;48.722;9.362;2023-07-31T10:39:59;4.10;;;2.70;;
46589;SDS011;32313;48.722;9.362;2023-07-31T10:42:38;4.07;;;2.53;;
46589;SDS011;32313;48.722;9.362;2023-07-31T10:45:13;4.40;;;2.67;;
46589;SDS011;32313;48.722;9.362;2023-07-31T10:47:43;5.40;;;2.80;;
46589;SDS011;32313;48.722;9.362;2023-07-31T10:52:50;3.33;;;2.67;;
46589;SDS011;32313;48.722;9.362;2023-07-31T10:57:56;4.27;;;3.00;;
46589;SDS011;32313;48.722;9.362;2023-07-31T11:00:27;5.73;;;2.73;;
46589;SDS011;32313;48.722;9.362;2023-07-31T11:03:01;4.63;;;2.73;;
46589;SDS011;32313;48.722;9.362;2023-07-31T11:08:23;5.40;;;2.90;;
46589;SDS011;32313;48.722;9.362;2023-07-31T11:10:51;4.23;;;2.80;;
46589;SDS011;32313;48.722;9.362;2023-07-31T11:13:30;4.83;;;2.93;;
46589;SDS011;32313;48.722;9.362;2023-07-31T11:16:04;3.97;;;2.70;;
46589;SDS011;32313;48.722;9.362;2023-07-31T11:18:30;3.27;;;2.50;;
46589;SDS011;32313;48.722;9.362;2023-07-31T11:20:56;3.63;;;2.57;;
46589;SDS011;32313;48.722;9.362;2023-07-31T11:23:22;3.43;;;2.57;;
46589;SDS011;32313;48.722;9.362;2023-07-31T11:25:48;4.40;;;2.90;;
46589;SDS011;32313;48.722;9.362;2023-07-31T11:28:16;5.33;;;2.80;;
46589;SDS011;32313;48.722;9.362;2023-07-31T11:30:43;3.17;;;2.77;;
46589;SDS011;32313;48.722;9.362;2023-07-31T11:33:10;3.77;;;2.87;;
46589;SDS011;32313;48.722;9.362;2023-07-31T11:35:41;7.20;;;2.87;;
46589;SDS011;32313;48.722;9.362;2023-07-31T11:38:09;6.23;;;2.80;;
46589;SDS011;32313;48.722;9.362;2023-07-31T11:40:59;4.30;;;3.00;;
46589;SDS011;32313;48.722;9.362;2023-07-31T11:43:27;4.93;;;2.87;;
46589;SDS011;32313;48.722;9.362;2023-07-31T11:45:54;5.83;;;3.00;;
46589;SDS011;32313;48.722;9.362;2023-07-31T11:48:25;3.37;;;2.80;;
46589;SDS011;32313;48.722;9.362;2023-07-31T11:50:53;6.43;;;2.83;;
46589;SDS011;32313;48.722;9.362;2023-07-31T11:56:17;3.57;;;2.40;;
46589;SDS011;32313;48.722;9.362;2023-07-31T11:58:45;4.17;;;3.13;;
46589;SDS011;32313;48.722;9.362;2023-07-31T12:01:13;5.57;;;3.10;;
46589;SDS011;32313;48.722;9.362;2023-07-31T12:03:40;4.30;;;3.00;;
46589;SDS011;32313;48.722;9.362;2023-07-31T12:06:07;5.53;;;3.23;;
46589;SDS011;32313;48.722;9.362;2023-07-31T12:08:33;4.77;;;3.23;;
46589;SDS011;32313;48.722;9.362;2023-07-31T12:11:05;4.70;;;3.40;;
46589;SDS011;32313;48.722;9.362;2023-07-31T12:13:34;4.67;;;3.30;;
46589;SDS011;32313;48.722;9.362;2023-07-31T12:16:01;4.00;;;2.90;;
46589;SDS011;32313;48.722;9.362;2023-07-31T12:18:29;4.97;;;3.30;;
46589;SDS011;32313;48.722;9.362;2023-07-31T12:21:00;4.60;;;3.20;;
46589;SDS011;32313;48.722;9.362;2023-07-31T12:23:27;5.13;;;3.30;;
46589;SDS011;32313;48.722;9.362;2023-07-31T12:26:04;4.30;;;3.17;;
46589;SDS011;32313;48.722;9.362;2023-07-31T12:28:37;4.20;;;3.03;;
46589;SDS011;32313;48.722;9.362;2023-07-31T12:31:08;5.47;;;3.10;;
46589;SDS011;32313;48.722;9.362;2023-07-31T12:33:35;4.93;;;3.30;;
46589;SDS011;32313;48.722;9.362;2023-07-31T12:36:03;5.50;;;3.17;;
46589;SDS011;32313;48.722;9.362;2023-07-31T12:38:34;5.27;;;3.30;;
46589;SDS011;32313;48.722;9.362;2023-07-31T12:40:59;5.13;;;3.50;;
46589;SDS011;32313;48.722;9.362;2023-07-31T12:43:25;4.73;;;2.93;;
46589;SDS011;32313;48.722;9.362;2023-07-31T12:45:51;5.73;;;3.00;;
46589;SDS011;32313;48.722;9.362;2023-07-31T12:48:16;4.33;;;2.90;;
46589;SDS011;32313;48.722;9.362;2023-07-31T12:50:42;5.10;;;3.20;;
46589;SDS011;32313;48.722;9.362;2023-07-31T12:53:08;5.67;;;3.27;;
46589;SDS011;32313;48.722;9.362;2023-07-31T12:55:34;4.50;;;3.07;;
46589;SDS011;32313;48.722;9.362;2023-07-31T12:58:01;3.23;;;2.90;;
46589;SDS011;32313;48.722;9.362;2023-07-31T13:00:27;5.00;;;3.20;;
46589;SDS011;32313;48.722;9.362;2023-07-31T13:02:53;4.00;;;3.00;;
46589;SDS011;32313;48.722;9.362;2023-07-31T13:05:19;4.83;;;3.20;;
46589;SDS011;32313;48.722;9.362;2023-07-31T13:07:46;4.87;;;3.00;;
46589;SDS011;32313;48.722;9.362;2023-07-31T13:10:12;5.10;;;3.70;;
46589;SDS011;32313;48.722;9.362;2023-07-31T13:12:38;5.20;;;3.10;;
46589;SDS011;32313;48.722;9.362;2023-07-31T13:15:04;5.43;;;2.93;;
46589;SDS011;32313;48.722;9.362;2023-07-31T13:17:31;6.17;;;3.20;;
46589;SDS011;32313;48.722;9.362;2023-07-31T13:19:57;5.00;;;3.27;;
46589;SDS011;32313;48.722;9.362;2023-07-31T13:22:23;8.40;;;3.37;;
46589;SDS011;32313;48.722;9.362;2023-07-31T13:24:49;5.23;;;3.10;;
46589;SDS011;32313;48.722;9.362;2023-07-31T13:27:15;5.43;;;3.50;;
46589;SDS011;32313;48.722;9.362;2023-07-31T13:29:46;3.57;;;3.03;;
46589;SDS011;32313;48.722;9.362;2023-07-31T13:32:16;4.37;;;3.10;;
46589;SDS011;32313;48.722;9.362;2023-07-31T13:34:42;6.73;;;3.57;;
46589;SDS011;32313;48.722;9.362;2023-07-31T13:37:09;4.33;;;3.40;;
46589;SDS011;32313;48.722;9.362;2023-07-31T13:39:34;6.10;;;3.40;;
46589;SDS011;32313;48.722;9.362;2023-07-31T13:42:00;3.87;;;2.93;;
46589;SDS011;32313;48.722;9.362;2023-07-31T13:44:28;4.73;;;3.53;;
46589;SDS011;32313;48.722;9.362;2023-07-31T13:46:53;5.10;;;3.17;;
46589;SDS011;32313;48.722;9.362;2023-07-31T13:49:19;4.53;;;3.03;;
46589;SDS011;32313;48.722;9.362;2023-07-31T13:51:45;5.07;;;3.30;;
46589;SDS011;32313;48.722;9.362;2023-07-31T13:54:11;3.80;;;3.03;;
46589;SDS011;32313;48.722;9.362;2023-07-31T13:56:37;6.17;;;3.23;;
46589;SDS011;32313;48.722;9.362;2023-07-31T13:59:03;4.57;;;3.30;;
46589;SDS011;32313;48.722;9.362;2023-07-31T14:01:29;4.47;;;3.33;;
46589;SDS011;32313;48.722;9.362;2023-07-31T14:03:55;4.30;;;3.00;;
46589;SDS011;32313;48.722;9.362;2023-07-31T14:06:20;3.70;;;2.90;;
46589;SDS011;32313;48.722;9.362;2023-07-31T14:08:46;4.93;;;3.10;;
46589;SDS011;32313;48.722;9.362;2023-07-31T14:11:12;4.23;;;2.80;;
46589;SDS011;32313;48.722;9.362;2023-07-31T14:13:37;4.50;;;2.97;;
46589;SDS011;32313;48.722;9.362;2023-07-31T14:16:03;5.20;;;2.93;;
46589;SDS011;32313;48.722;9.362;2023-07-31T14:18:29;3.90;;;3.00;;
46589;SDS011;32313;48.722;9.362;2023-07-31T14:20:55;3.80;;;2.90;;
46589;SDS011;32313;48.722;9.362;2023-07-31T14:23:20;4.63;;;3.00;;
46589;SDS011;32313;48.722;9.362;2023-07-31T14:25:46;4.70;;;3.20;;
46589;SDS011;32313;48.722;9.362;2023-07-31T14:28:12;4.70;;;2.97;;
46589;SDS011;32313;48.722;9.362;2023-07-31T14:30:38;3.70;;;2.77;;
46589;SDS011;32313;48.722;9.362;2023-07-31T14:33:04;5.77;;;3.27;;
46589;SDS011;32313;48.722;9.362;2023-07-31T14:35:30;2.83;;;2.63;;
46589;SDS011;32313;48.722;9.362;2023-07-31T14:37:55;4.30;;;2.80;;
46589;SDS011;32313;48.722;9.362;2023-07-31T14:40:21;5.33;;;3.23;;
46589;SDS011;32313;48.722;9.362;2023-07-31T14:42:47;4.20;;;2.90;;
46589;SDS011;32313;48.722;9.362;2023-07-31T14:45:12;5.00;;;2.90;;
46589;SDS011;32313;48.722;9.362;2023-07-31T14:47:38;3.57;;;2.77;;
46589;SDS011;32313;48.722;9.362;2023-07-31T14:50:04;5.00;;;3.30;;
46589;SDS011;32313;48.722;9.362;2023-07-31T14:52:30;4.73;;;2.97;;
46589;SDS011;32313;48.722;9.362;2023-07-31T14:54:56;4.83;;;3.10;;
46589;SDS011;32313;48.722;9.362;2023-07-31T14:57:22;4.27;;;3.07;;
46589;SDS011;32313;48.722;9.362;2023-07-31T14:59:47;4.13;;;3.03;;
46589;SDS011;32313;48.722;9.362;2023-07-31T15:02:14;5.87;;;2.97;;
46589;SDS011;32313;48.722;9.362;2023-07-31T15:04:40;3.90;;;2.87;;
46589;SDS011;32313;48.722;9.362;2023-07-31T15:07:06;3.50;;;2.73;;